Time,TemperatureF,DewpointF,PressureIn,WindDirection,WindDirectionDegrees,WindSpeedMPH,WindSpeedGustMPH,Humidity,HourlyPrecipIn,Conditions,Clouds,dailyrainin,SoftwareType,DateUTC
2013-03-18 00:03:00,18.9,16.5,30.15,North,0,0.0,-999.0,90,-99.99,,,0.00,Acu-Link.com,2013-03-18 04:03:00,
2013-03-18 00:18:00,18.9,15.9,30.14,NNW,337,0.0,-999.0,88,-99.99,,,0.00,Acu-Link.com,2013-03-18 04:18:00,
2013-03-18 00:33:00,18.7,15.7,30.14,NNW,337,0.0,-999.0,88,-99.99,,,0.00,Acu-Link.com,2013-03-18 04:33:00,
2013-03-18 00:49:00,18.9,15.9,30.13,NNE,22,0.0,-999.0,88,-99.99,,,0.00,Acu-Link.com,2013-03-18 04:49:00,
2013-03-18 01:04:00,19.0,16.0,30.12,ENE,67,0.0,-999.0,88,-99.99,,,0.00,Acu-Link.com,2013-03-18 05:04:00,
2013-03-18 01:19:00,19.4,16.2,30.12,ENE,67,0.0,-999.0,87,-99.99,,,0.00,Acu-Link.com,2013-03-18 05:19:00,
2013-03-18 01:34:00,19.9,16.1,30.11,NNW,337,0.0,-999.0,85,-99.99,,,0.00,Acu-Link.com,2013-03-18 05:34:00,
2013-03-18 01:50:00,19.6,15.8,30.11,WSW,247,0.0,-999.0,85,-99.99,,,0.00,Acu-Link.com,2013-03-18 05:50:00,
2013-03-18 02:05:00,20.1,16.1,30.10,NW,315,0.0,-999.0,84,-99.99,,,0.00,Acu-Link.com,2013-03-18 06:05:00,
2013-03-18 02:20:00,20.3,16.3,30.09,NW,315,1.1,-999.0,84,-99.99,,,0.00,Acu-Link.com,2013-03-18 06:20:00,
2013-03-18 02:36:00,20.3,16.3,30.09,West,270,0.0,-999.0,84,-99.99,,,0.00,Acu-Link.com,2013-03-18 06:36:00,
2013-03-18 03:06:00,21.0,16.4,30.09,North,0,0.0,-999.0,82,-99.99,,,0.00,Acu-Link.com,2013-03-18 07:06:00,
2013-03-18 03:21:00,21.4,16.5,30.09,SSW,202,0.0,-999.0,81,-99.99,,,0.00,Acu-Link.com,2013-03-18 07:21:00,
2013-03-18 03:36:00,22.1,16.6,30.08,SE,135,0.0,-999.0,79,-99.99,,,0.00,Acu-Link.com,2013-03-18 07:36:00,
2013-03-18 03:52:00,23.5,17.4,30.07,SW,225,1.7,-999.0,77,-99.99,,,0.00,Acu-Link.com,2013-03-18 07:52:00,
2013-03-18 04:07:00,24.1,17.3,30.07,NE,45,2.7,-999.0,75,-99.99,,,0.00,Acu-Link.com,2013-03-18 08:07:00,
2013-03-18 04:22:00,24.3,17.8,30.05,NE,45,3.2,-999.0,76,-99.99,,,0.00,Acu-Link.com,2013-03-18 08:22:00,
2013-03-18 04:37:00,24.6,18.1,30.04,SSW,202,0.0,-999.0,76,-99.99,,,0.00,Acu-Link.com,2013-03-18 08:37:00,
2013-03-18 04:52:00,25.2,18.4,30.03,SSE,157,2.7,-999.0,75,-99.99,,,0.00,Acu-Link.com,2013-03-18 08:52:00,
2013-03-18 05:08:00,25.3,18.5,30.02,SSW,202,2.7,-999.0,75,-99.99,,,0.00,Acu-Link.com,2013-03-18 09:08:00,
2013-03-18 05:23:00,25.5,19.0,30.01,SSW,202,1.7,-999.0,76,-99.99,,,0.00,Acu-Link.com,2013-03-18 09:23:00,
2013-03-18 05:38:00,26.1,19.6,30.01,NE,45,1.1,-999.0,76,-99.99,,,0.00,Acu-Link.com,2013-03-18 09:38:00,
2013-03-18 05:53:00,26.6,20.4,29.99,SE,135,2.2,-999.0,77,-99.99,,,0.00,Acu-Link.com,2013-03-18 09:53:00,
2013-03-18 06:09:00,27.0,20.8,29.99,ESE,112,1.1,-999.0,77,-99.99,,,0.00,Acu-Link.com,2013-03-18 10:09:00,
2013-03-18 06:24:00,27.3,21.4,29.97,South,180,1.7,-999.0,78,-99.99,,,0.00,Acu-Link.com,2013-03-18 10:24:00,
2013-03-18 06:39:00,27.7,21.4,29.96,SW,225,3.2,-999.0,77,-99.99,,,0.00,Acu-Link.com,2013-03-18 10:39:00,
2013-03-18 06:54:00,27.7,21.4,29.97,South,180,2.7,-999.0,77,-99.99,,,0.00,Acu-Link.com,2013-03-18 10:54:00,
2013-03-18 07:10:00,28.4,22.1,29.96,ENE,67,5.3,-999.0,77,-99.99,,,0.00,Acu-Link.com,2013-03-18 11:10:00,
2013-03-18 07:25:00,28.6,22.3,29.96,WSW,247,5.8,-999.0,77,-99.99,,,0.00,Acu-Link.com,2013-03-18 11:25:00,
2013-03-18 07:40:00,28.6,22.6,29.94,ESE,112,4.7,-999.0,78,-99.99,,,0.00,Acu-Link.com,2013-03-18 11:40:00,
2013-03-18 07:55:00,28.9,22.9,29.93,South,180,2.2,-999.0,78,-99.99,,,0.00,Acu-Link.com,2013-03-18 11:55:00,
2013-03-18 08:10:00,29.1,23.1,29.93,SE,135,3.2,-999.0,78,-99.99,,,0.00,Acu-Link.com,2013-03-18 12:10:00,
2013-03-18 08:26:00,29.5,23.5,29.92,SE,135,3.2,-999.0,78,-99.99,,,0.00,Acu-Link.com,2013-03-18 12:26:00,
2013-03-18 08:41:00,29.8,23.5,29.91,ESE,112,3.2,-999.0,77,-99.99,,,0.00,Acu-Link.com,2013-03-18 12:41:00,
2013-03-18 09:11:00,30.2,23.9,29.89,South,180,6.3,-999.0,77,-99.99,,,0.00,Acu-Link.com,2013-03-18 13:11:00,
2013-03-18 09:42:00,30.9,24.9,29.85,SSW,202,6.3,-999.0,78,-99.99,,,0.00,Acu-Link.com,2013-03-18 13:42:00,
2013-03-18 09:57:00,30.7,25.0,29.86,SSE,157,13.0,-999.0,79,-99.99,,,0.00,Acu-Link.com,2013-03-18 13:57:00,
2013-03-18 10:13:00,30.7,28.1,29.85,WSW,247,6.8,-999.0,90,-99.99,,,0.00,Acu-Link.com,2013-03-18 14:13:00,
2013-03-18 10:28:00,31.1,29.6,29.84,South,180,3.7,-999.0,94,-99.99,,,0.00,Acu-Link.com,2013-03-18 14:28:00,
2013-03-18 10:43:00,31.5,31.0,29.84,East,90,4.2,-999.0,98,-99.99,,,0.00,Acu-Link.com,2013-03-18 14:43:00,
2013-03-18 10:58:00,31.3,30.8,29.82,WSW,247,4.2,-999.0,98,-99.99,,,0.00,Acu-Link.com,2013-03-18 14:58:00,
2013-03-18 11:13:00,31.3,30.8,29.80,ESE,112,3.2,-999.0,98,-99.99,,,0.00,Acu-Link.com,2013-03-18 15:13:00,
2013-03-18 11:28:00,31.5,31.0,29.80,SSW,202,15.0,-999.0,98,-99.99,,,0.00,Acu-Link.com,2013-03-18 15:28:00,
2013-03-18 11:44:00,31.3,30.5,29.79,West,270,7.3,-999.0,97,-99.99,,,0.00,Acu-Link.com,2013-03-18 15:44:00,
2013-03-18 11:59:00,31.3,30.3,29.80,West,270,9.4,-999.0,96,-99.99,,,0.00,Acu-Link.com,2013-03-18 15:59:00,
2013-03-18 12:14:00,32.0,31.2,29.78,SSW,202,9.4,-999.0,97,-99.99,,,0.00,Acu-Link.com,2013-03-18 16:14:00,
2013-03-18 12:29:00,31.8,30.8,29.78,SSW,202,5.3,-999.0,96,-99.99,,,0.00,Acu-Link.com,2013-03-18 16:29:00,
2013-03-18 12:44:00,32.4,31.4,29.77,SSE,157,4.2,-999.0,96,-99.99,,,0.00,Acu-Link.com,2013-03-18 16:44:00,
2013-03-18 13:00:00,32.5,31.5,29.76,SSW,202,5.8,-999.0,96,-99.99,,,0.00,Acu-Link.com,2013-03-18 17:00:00,
2013-03-18 13:15:00,32.7,31.7,29.76,SW,225,6.3,-999.0,96,-99.99,,,0.00,Acu-Link.com,2013-03-18 17:15:00,
2013-03-18 13:30:00,33.4,32.4,29.76,SSE,157,4.7,-999.0,96,-99.99,,,0.00,Acu-Link.com,2013-03-18 17:30:00,
2013-03-18 13:46:00,33.6,32.6,29.75,SSW,202,11.9,-999.0,96,-99.99,,,0.01,Acu-Link.com,2013-03-18 17:46:00,
2013-03-18 14:01:00,33.1,32.1,29.73,South,180,7.3,-999.0,96,-99.99,,,0.03,Acu-Link.com,2013-03-18 18:01:00,
2013-03-18 14:16:00,32.9,32.1,29.72,SE,135,4.7,-999.0,97,-99.99,,,0.03,Acu-Link.com,2013-03-18 18:16:00,
2013-03-18 14:32:00,33.4,31.9,29.70,SSE,157,5.8,-999.0,94,-99.99,,,0.03,Acu-Link.com,2013-03-18 18:32:00,
2013-03-18 14:47:00,33.8,32.0,29.71,NW,315,3.7,-999.0,93,-99.99,,,0.05,Acu-Link.com,2013-03-18 18:47:00,
2013-03-18 15:17:00,33.3,32.3,29.69,SSW,202,5.8,-999.0,96,-99.99,,,0.05,Acu-Link.com,2013-03-18 19:17:00,
2013-03-18 15:32:00,33.3,32.5,29.69,North,0,8.3,-999.0,97,-99.99,,,0.06,Acu-Link.com,2013-03-18 19:32:00,
2013-03-18 15:47:00,33.1,32.6,29.66,South,180,4.7,-999.0,98,-99.99,,,0.07,Acu-Link.com,2013-03-18 19:47:00,
2013-03-18 16:03:00,32.9,32.4,29.65,ESE,112,6.3,-999.0,98,-99.99,,,0.07,Acu-Link.com,2013-03-18 20:03:00,
2013-03-18 16:18:00,32.9,32.4,29.64,WNW,292,7.3,-999.0,98,-99.99,,,0.07,Acu-Link.com,2013-03-18 20:18:00,
2013-03-18 16:49:00,32.7,32.2,29.62,South,180,4.7,-999.0,98,-99.99,,,0.07,Acu-Link.com,2013-03-18 20:49:00,
2013-03-18 17:04:00,32.7,32.2,29.61,South,180,9.9,-999.0,98,-99.99,,,0.07,Acu-Link.com,2013-03-18 21:04:00,
2013-03-18 17:19:00,33.1,32.6,29.60,SSW,202,10.4,-999.0,98,-99.99,,,0.08,Acu-Link.com,2013-03-18 21:19:00,
2013-03-18 17:34:00,33.3,32.8,29.60,South,180,6.3,-999.0,98,-99.99,,,0.08,Acu-Link.com,2013-03-18 21:34:00,
2013-03-18 17:49:00,33.3,32.8,29.59,South,180,6.3,-999.0,98,-99.99,,,0.09,Acu-Link.com,2013-03-18 21:49:00,
2013-03-18 18:04:00,33.4,32.9,29.59,SW,225,8.9,-999.0,98,-99.99,,,0.09,Acu-Link.com,2013-03-18 22:04:00,
2013-03-18 18:19:00,33.6,33.1,29.56,West,270,7.3,-999.0,98,-99.99,,,0.11,Acu-Link.com,2013-03-18 22:19:00,
2013-03-18 18:34:00,33.8,33.3,29.56,SSW,202,6.8,-999.0,98,-99.99,,,0.11,Acu-Link.com,2013-03-18 22:34:00,
2013-03-18 18:49:00,33.6,33.1,29.57,SW,225,8.3,-999.0,98,-99.99,,,0.13,Acu-Link.com,2013-03-18 22:49:00,
2013-03-18 19:04:00,33.8,33.3,29.57,SW,225,11.9,-999.0,98,-99.99,,,0.14,Acu-Link.com,2013-03-18 23:04:00,
2013-03-18 19:20:00,34.0,33.5,29.57,South,180,8.3,-999.0,98,-99.99,,,0.15,Acu-Link.com,2013-03-18 23:20:00,
2013-03-18 19:35:00,34.0,33.5,29.56,WSW,247,9.4,-999.0,98,-99.99,,,0.16,Acu-Link.com,2013-03-18 23:35:00,
2013-03-18 19:50:00,34.3,33.8,29.56,SSW,202,6.3,-999.0,98,-99.99,,,0.18,Acu-Link.com,2013-03-18 23:50:00,
2013-03-18 20:05:00,34.5,34.0,29.57,WSW,247,6.3,-999.0,98,-99.99,,,0.19,Acu-Link.com,2013-03-19 00:05:00,
2013-03-18 20:20:00,34.5,34.0,29.56,SSW,202,6.3,-999.0,98,-99.99,,,0.20,Acu-Link.com,2013-03-19 00:20:00,
2013-03-18 20:36:00,34.5,34.0,29.57,SSE,157,4.7,-999.0,98,-99.99,,,0.22,Acu-Link.com,2013-03-19 00:36:00,
2013-03-18 21:21:00,34.7,34.2,29.57,SE,135,3.2,-999.0,98,-99.99,,,0.29,Acu-Link.com,2013-03-19 01:21:00,
2013-03-18 21:52:00,34.9,34.4,29.56,SSE,157,5.3,-999.0,98,-99.99,,,0.32,Acu-Link.com,2013-03-19 01:52:00,
2013-03-18 22:07:00,34.7,34.2,29.55,South,180,3.2,-999.0,98,-99.99,,,0.34,Acu-Link.com,2013-03-19 02:07:00,
2013-03-18 22:22:00,35.2,34.7,29.55,SSW,202,11.4,-999.0,98,-99.99,,,0.36,Acu-Link.com,2013-03-19 02:22:00,
2013-03-18 22:37:00,35.1,34.6,29.56,South,180,10.4,-999.0,98,-99.99,,,0.37,Acu-Link.com,2013-03-19 02:37:00,
2013-03-18 22:52:00,35.1,34.6,29.56,SSE,157,8.3,-999.0,98,-99.99,,,0.38,Acu-Link.com,2013-03-19 02:52:00,
2013-03-18 23:07:00,35.1,34.6,29.56,SSW,202,7.3,-999.0,98,-99.99,,,0.40,Acu-Link.com,2013-03-19 03:07:00,
2013-03-18 23:22:00,35.1,34.6,29.56,SE,135,5.8,-999.0,98,-99.99,,,0.42,Acu-Link.com,2013-03-19 03:22:00,
2013-03-18 23:38:00,35.4,34.9,29.57,West,270,7.3,-999.0,98,-99.99,,,0.42,Acu-Link.com,2013-03-19 03:38:00,
2013-03-18 23:53:00,35.4,34.9,29.58,NNW,337,2.2,-999.0,98,-99.99,,,0.44,Acu-Link.com,2013-03-19 03:53:00,